Terminal Aerodrome Forecast
Issued by NWS Quad Cities IA IL

Home | Current Version | Previous Version | Text Only | Print | Product List | Glossary On
Versions: 1 2 3 4 5 6 7 8 9 10 11 12 13 14 15 16 17 18
841
FTUS43 KDVN 210520
TAFDBQ
TAF
KDBQ 210520Z 2106/2206 21012KT P6SM BKN250
     FM210900 28010KT P6SM BKN150
     FM211500 32020G30KT P6SM SCT250
     FM220000 32012KT P6SM SKC=

USA.gov is the U.S. government's official web portal to all federal, state and local government web resources and services.